createdAt,value
2017-12-23T00:01:33.967Z,5.70
2017-12-23T00:04:01.680Z,5.60
2017-12-23T00:06:29.186Z,5.60
2017-12-23T00:08:56.682Z,5.70
2017-12-23T00:11:24.958Z,5.60
2017-12-23T00:13:52.827Z,5.50
2017-12-23T00:16:20.331Z,5.50
2017-12-23T00:18:48.567Z,5.40
2017-12-23T00:21:16.575Z,5.30
2017-12-23T00:23:44.074Z,5.30
2017-12-23T00:26:11.584Z,5.20
2017-12-23T00:28:39.507Z,5.30
2017-12-23T00:31:07.971Z,5.30
2017-12-23T00:33:35.738Z,5.40
2017-12-23T00:36:03.503Z,5.50
2017-12-23T00:38:31.574Z,5.40
2017-12-23T00:41:00.191Z,5.40
2017-12-23T00:43:28.595Z,5.10
2017-12-23T00:45:56.509Z,5.20
2017-12-23T00:48:24.006Z,5.00
2017-12-23T00:50:52.243Z,5.00
2017-12-23T00:53:20.007Z,5.00
2017-12-23T00:55:47.776Z,5.00
2017-12-23T00:58:15.806Z,5.00
2017-12-23T01:00:44.083Z,4.90
2017-12-23T01:03:12.007Z,4.80
2017-12-23T01:05:40.156Z,4.90
2017-12-23T01:08:09.055Z,4.80
2017-12-23T01:10:36.820Z,4.90
2017-12-23T01:13:04.594Z,4.90
2017-12-23T01:15:32.346Z,4.90
2017-12-23T01:18:00.602Z,4.90
2017-12-23T01:20:29.596Z,4.80
2017-12-23T01:22:57.094Z,4.90
2017-12-23T01:25:25.364Z,4.80
2017-12-23T01:27:52.975Z,4.70
2017-12-23T01:30:20.780Z,4.60
2017-12-23T01:32:48.544Z,4.60
2017-12-23T01:35:16.899Z,4.80
2017-12-23T01:37:44.955Z,4.70
2017-12-23T01:40:12.759Z,4.50
2017-12-23T01:42:40.661Z,4.60
2017-12-23T01:45:08.287Z,4.60
2017-12-23T01:47:35.900Z,4.60
2017-12-23T01:50:04.208Z,4.60
2017-12-23T01:52:32.811Z,4.70
2017-12-23T01:55:00.324Z,4.50
2017-12-23T01:57:28.296Z,4.50
2017-12-23T01:59:55.802Z,4.50
2017-12-23T02:02:23.516Z,4.30
2017-12-23T02:04:51.071Z,4.50
2017-12-23T02:07:18.575Z,4.40
2017-12-23T02:09:46.525Z,4.40
2017-12-23T02:12:14.028Z,4.30
2017-12-23T02:14:41.767Z,4.30
2017-12-23T02:17:10.151Z,4.30
2017-12-23T02:19:38.179Z,4.30
2017-12-23T02:22:05.730Z,4.40
2017-12-23T02:24:33.232Z,4.30
2017-12-23T02:27:00.892Z,4.30
2017-12-23T02:29:28.393Z,4.30
2017-12-23T02:31:56.728Z,4.30
2017-12-23T02:34:24.536Z,4.40
2017-12-23T02:36:52.831Z,4.30
2017-12-23T02:39:20.627Z,4.20
2017-12-23T02:41:48.126Z,4.30
2017-12-23T02:44:15.728Z,4.30
2017-12-23T02:46:43.240Z,4.20
2017-12-23T02:49:10.739Z,4.30
2017-12-23T02:51:38.239Z,4.40
2017-12-23T02:54:05.988Z,4.40
2017-12-23T02:56:33.748Z,4.50
2017-12-23T02:59:01.519Z,4.50
2017-12-23T03:01:29.548Z,4.50
2017-12-23T03:03:57.048Z,4.60
2017-12-23T03:06:24.671Z,4.50
2017-12-23T03:08:52.959Z,4.40
2017-12-23T03:11:20.635Z,4.40
2017-12-23T03:13:49.034Z,4.40
2017-12-23T03:16:16.559Z,4.40
2017-12-23T03:18:44.204Z,4.50
2017-12-23T03:21:12.575Z,4.40
2017-12-23T03:23:40.080Z,4.30
2017-12-23T03:26:07.972Z,4.30
2017-12-23T03:28:36.240Z,4.30
2017-12-23T03:31:04.808Z,4.40
2017-12-23T03:33:32.311Z,4.50
2017-12-23T03:36:00.419Z,4.40
2017-12-23T03:38:29.115Z,4.40
2017-12-23T03:40:57.483Z,4.50
2017-12-23T03:43:25.245Z,4.50
2017-12-23T03:45:53.265Z,4.50
2017-12-23T03:48:21.091Z,4.50
2017-12-23T03:50:48.586Z,4.50
2017-12-23T03:53:16.510Z,4.50
2017-12-23T03:55:44.776Z,4.50
2017-12-23T03:58:12.375Z,4.60
2017-12-23T04:00:40.419Z,4.50
2017-12-23T04:03:07.963Z,4.60
2017-12-23T04:05:36.271Z,4.60
2017-12-23T04:08:03.764Z,4.60
2017-12-23T04:10:31.662Z,4.80
2017-12-23T04:12:59.920Z,4.70
2017-12-23T04:15:28.007Z,4.70
2017-12-23T04:17:55.505Z,4.60
2017-12-23T04:20:23.407Z,4.60
2017-12-23T04:22:50.988Z,4.60
2017-12-23T04:25:18.753Z,4.70
2017-12-23T04:27:46.826Z,4.70
2017-12-23T04:30:15.203Z,4.70
2017-12-23T04:32:43.232Z,4.80
2017-12-23T04:35:11.033Z,4.80
2017-12-23T04:37:39.040Z,4.80
2017-12-23T04:40:07.068Z,4.80
2017-12-23T04:42:34.962Z,4.90
2017-12-23T04:45:02.638Z,4.90
2017-12-23T04:47:30.132Z,5.00
2017-12-23T04:49:57.631Z,5.00
2017-12-23T04:52:25.659Z,5.00
2017-12-23T04:54:53.150Z,5.00
2017-12-23T04:57:20.901Z,5.10
2017-12-23T04:59:48.664Z,5.10
2017-12-23T05:02:16.173Z,5.20
2017-12-23T05:04:43.770Z,5.20
2017-12-23T05:07:11.339Z,5.20
2017-12-23T05:09:39.104Z,5.20
2017-12-23T05:12:06.604Z,5.20
2017-12-23T05:14:34.342Z,5.30
2017-12-23T05:17:02.700Z,5.40
2017-12-23T05:19:30.215Z,5.40
2017-12-23T05:21:57.722Z,5.40
2017-12-23T05:24:25.247Z,5.50
2017-12-23T05:26:53.522Z,5.40
2017-12-23T05:29:21.016Z,5.50
2017-12-23T05:31:48.519Z,5.50
2017-12-23T05:34:16.121Z,5.50
2017-12-23T05:36:43.626Z,5.60
2017-12-23T05:39:11.125Z,5.50
2017-12-23T05:41:38.628Z,5.50
2017-12-23T05:44:06.903Z,5.50
2017-12-23T05:46:34.587Z,5.60
2017-12-23T05:49:02.102Z,5.60
2017-12-23T05:51:30.131Z,5.50
2017-12-23T05:53:57.638Z,5.70
2017-12-23T05:56:25.522Z,5.60
2017-12-23T05:58:53.423Z,5.60
2017-12-23T06:01:21.209Z,5.70
2017-12-23T06:03:48.715Z,5.70
2017-12-23T06:06:16.211Z,5.80
2017-12-23T06:08:43.889Z,5.80
2017-12-23T06:11:11.379Z,5.80
2017-12-23T06:13:38.888Z,5.80
2017-12-23T06:16:06.566Z,5.90
2017-12-23T06:18:35.775Z,5.90
2017-12-23T06:21:04.726Z,5.90
2017-12-23T06:23:32.315Z,5.90
2017-12-23T06:43:19.027Z,6.30
2017-12-23T06:45:46.792Z,6.40
2017-12-23T06:48:14.862Z,6.40
2017-12-23T06:50:42.367Z,6.50
2017-12-23T06:53:10.697Z,6.50
2017-12-23T06:55:38.195Z,6.50
2017-12-23T06:58:06.092Z,6.50
2017-12-23T07:00:33.681Z,6.50
2017-12-23T07:03:01.175Z,6.50
2017-12-23T07:05:28.813Z,6.60
2017-12-23T07:07:56.704Z,6.60
2017-12-23T07:10:24.263Z,6.60
2017-12-23T07:12:52.523Z,6.70
2017-12-23T07:15:20.147Z,6.60
2017-12-23T07:17:47.721Z,6.60
2017-12-23T07:20:16.072Z,6.60
2017-12-23T07:22:44.373Z,6.70
2017-12-23T07:25:11.895Z,6.70
2017-12-23T07:27:39.659Z,6.70
2017-12-23T07:30:07.460Z,6.70
2017-12-23T07:32:35.824Z,6.70
2017-12-23T07:35:03.716Z,6.80
2017-12-23T07:37:31.336Z,6.90
2017-12-23T07:39:58.841Z,6.80
2017-12-23T07:42:26.346Z,6.90
2017-12-23T07:44:53.999Z,6.90
2017-12-23T07:47:21.511Z,6.90
2017-12-23T07:49:49.776Z,6.90
2017-12-23T07:52:17.486Z,6.90
2017-12-23T07:54:45.740Z,7.00
2017-12-23T07:57:13.784Z,7.00
2017-12-23T07:59:41.552Z,7.00
2017-12-23T08:02:09.047Z,7.00
2017-12-23T08:04:37.076Z,7.10
2017-12-23T08:07:05.373Z,7.10
2017-12-23T08:09:33.257Z,7.10
2017-12-23T08:12:00.759Z,7.10
2017-12-23T08:14:28.395Z,7.10
2017-12-23T08:16:56.419Z,7.10
2017-12-23T08:19:23.922Z,7.20
2017-12-23T08:21:51.936Z,7.10
2017-12-23T08:24:19.495Z,7.20
2017-12-23T08:26:47.115Z,7.20
2017-12-23T08:29:14.716Z,7.20
2017-12-23T08:31:43.394Z,7.20
2017-12-23T08:34:11.508Z,7.20
2017-12-23T08:36:39.719Z,7.30
2017-12-23T08:39:07.585Z,7.20
2017-12-23T08:41:36.899Z,7.20
2017-12-23T08:44:04.899Z,7.20
2017-12-23T08:46:32.772Z,7.20
2017-12-23T08:49:00.344Z,7.20
2017-12-23T08:51:28.606Z,7.30
2017-12-23T08:53:56.131Z,7.30
2017-12-23T08:56:23.611Z,7.30
2017-12-23T08:58:51.507Z,7.30
2017-12-23T09:01:20.803Z,7.30
2017-12-23T09:03:49.251Z,7.30
2017-12-23T09:06:17.006Z,7.30
2017-12-23T09:08:44.773Z,7.30
2017-12-23T09:11:12.267Z,7.30
2017-12-23T09:13:39.784Z,7.30
2017-12-23T09:33:24.183Z,7.30
2017-12-23T09:35:51.683Z,7.30
2017-12-23T09:38:19.978Z,8.90
2017-12-23T09:40:47.504Z,9.80
2017-12-23T09:43:15.111Z,9.80
2017-12-23T09:45:42.616Z,9.30
2017-12-23T09:48:10.176Z,9.50
2017-12-23T09:50:37.686Z,8.40
2017-12-23T09:53:05.304Z,7.70
2017-12-23T09:55:32.863Z,7.60
2017-12-23T09:58:00.364Z,7.50
2017-12-23T10:00:27.871Z,7.50
2017-12-23T10:02:56.834Z,7.50
2017-12-23T10:05:24.856Z,7.50
2017-12-23T10:07:52.635Z,7.50
2017-12-23T10:10:20.144Z,7.50
2017-12-23T10:12:47.859Z,7.50
2017-12-23T10:15:16.144Z,7.50
2017-12-23T10:17:43.643Z,7.50
2017-12-23T10:20:11.492Z,7.50
2017-12-23T10:22:38.991Z,7.50
2017-12-23T10:25:07.342Z,7.50
2017-12-23T10:27:35.332Z,7.50
2017-12-23T10:30:03.089Z,7.60
2017-12-23T10:32:32.370Z,7.60
2017-12-23T10:34:59.863Z,7.50
2017-12-23T10:37:27.880Z,7.50
2017-12-23T10:39:55.383Z,7.50
2017-12-23T10:42:23.327Z,7.60
2017-12-23T10:44:52.420Z,7.60
2017-12-23T10:47:19.935Z,7.60
2017-12-23T10:49:47.696Z,7.60
2017-12-23T10:52:15.728Z,7.60
2017-12-23T10:54:44.342Z,7.60
2017-12-23T10:57:11.903Z,7.60
2017-12-23T10:59:39.394Z,7.60
2017-12-23T11:02:07.751Z,7.70
2017-12-23T11:04:35.275Z,7.70
2017-12-23T11:07:03.787Z,7.70
2017-12-23T11:09:31.332Z,7.70
2017-12-23T11:11:58.884Z,7.60
2017-12-23T11:14:26.396Z,7.60
2017-12-23T11:16:54.780Z,7.60
2017-12-23T11:19:24.852Z,7.60
2017-12-23T11:21:52.605Z,7.60
2017-12-23T11:24:20.110Z,7.60
2017-12-23T11:26:48.391Z,7.60
2017-12-23T11:29:17.871Z,7.60
2017-12-23T11:31:45.368Z,7.60
2017-12-23T11:34:13.632Z,7.70
2017-12-23T11:36:42.443Z,7.70
2017-12-23T11:39:10.951Z,7.70
2017-12-23T11:41:38.581Z,7.70
2017-12-23T11:44:06.980Z,7.70
2017-12-23T11:46:34.483Z,7.70
2017-12-23T11:49:02.864Z,7.70
2017-12-23T11:51:30.378Z,8.80
2017-12-23T11:53:57.882Z,9.00
2017-12-23T11:56:25.602Z,9.90
2017-12-23T11:58:53.891Z,10.50
2017-12-23T12:01:21.407Z,10.70
2017-12-23T12:03:49.080Z,10.90
2017-12-23T12:06:16.626Z,10.40
2017-12-23T12:08:44.124Z,10.60
2017-12-23T12:11:12.179Z,10.50
2017-12-23T12:13:39.683Z,10.00
2017-12-23T12:16:07.979Z,10.40
2017-12-23T12:18:35.486Z,10.70
2017-12-23T12:21:03.000Z,10.00
2017-12-23T12:23:31.293Z,8.70
2017-12-23T12:25:58.796Z,8.30
2017-12-23T12:28:26.300Z,8.00
2017-12-23T12:30:54.013Z,8.00
2017-12-23T12:33:22.326Z,7.90
2017-12-23T12:35:49.820Z,7.90
2017-12-23T12:38:17.720Z,8.00
2017-12-23T12:40:45.982Z,8.00
2017-12-23T12:43:14.003Z,8.00
2017-12-23T12:45:41.784Z,8.10
2017-12-23T12:48:09.291Z,8.10
2017-12-23T12:50:36.790Z,8.00
2017-12-23T12:53:05.691Z,8.00
2017-12-23T12:55:33.465Z,8.00
2017-12-23T12:58:01.649Z,8.00
2017-12-23T13:00:29.143Z,8.10
2017-12-23T13:02:57.136Z,8.00
2017-12-23T13:05:25.772Z,8.10
2017-12-23T13:07:53.508Z,8.10
2017-12-23T13:10:21.840Z,8.10
2017-12-23T13:12:49.929Z,8.10
2017-12-23T13:15:17.732Z,8.10
2017-12-23T13:17:45.791Z,8.00
2017-12-23T13:20:13.629Z,8.00
2017-12-23T13:22:41.322Z,8.40
2017-12-23T13:25:08.820Z,8.20
2017-12-23T13:27:36.340Z,8.10
2017-12-23T13:30:03.832Z,8.10
2017-12-23T13:32:32.107Z,8.10
2017-12-23T13:35:00.528Z,8.00
2017-12-23T13:37:28.044Z,8.00
2017-12-23T13:39:56.310Z,8.00
2017-12-23T13:42:23.818Z,8.00
2017-12-23T13:44:51.499Z,8.00
2017-12-23T13:47:18.996Z,8.00
2017-12-23T13:49:46.671Z,8.00
2017-12-23T13:52:15.729Z,8.00
2017-12-23T13:54:43.219Z,8.00
2017-12-23T13:57:16.034Z,8.00
2017-12-23T13:59:44.051Z,8.00
2017-12-23T14:02:11.682Z,8.00
2017-12-23T14:04:39.443Z,8.00
2017-12-23T14:07:07.463Z,8.00
2017-12-23T14:09:35.583Z,8.00
2017-12-23T14:12:03.351Z,8.00
2017-12-23T14:14:30.858Z,8.00
2017-12-23T14:16:58.659Z,8.10
2017-12-23T14:19:26.579Z,8.10
2017-12-23T14:21:54.486Z,8.10
2017-12-23T14:24:23.336Z,8.10
2017-12-23T14:26:50.851Z,8.10
2017-12-23T14:29:19.408Z,8.10
2017-12-23T14:31:46.895Z,8.10
2017-12-23T14:34:15.143Z,8.10
2017-12-23T14:36:43.780Z,8.10
2017-12-23T14:39:11.508Z,8.10
2017-12-23T14:41:39.493Z,8.10
2017-12-23T14:44:07.628Z,8.20
2017-12-23T14:46:35.422Z,8.10
2017-12-23T14:49:02.919Z,8.10
2017-12-23T14:51:31.564Z,8.10
2017-12-23T14:53:59.059Z,8.10
2017-12-23T14:56:26.559Z,8.10
2017-12-23T14:58:54.580Z,8.10
2017-12-23T15:01:23.086Z,8.10
2017-12-23T15:03:50.643Z,8.10
2017-12-23T15:06:18.148Z,8.10
2017-12-23T15:08:45.639Z,8.10
2017-12-23T15:11:13.976Z,8.10
2017-12-23T15:13:41.743Z,8.00
2017-12-23T15:16:09.238Z,8.10
2017-12-23T15:18:36.923Z,8.10
2017-12-23T15:21:04.535Z,8.10
2017-12-23T15:23:32.031Z,8.10
2017-12-23T15:26:00.296Z,8.00
2017-12-23T15:28:27.791Z,8.10
2017-12-23T15:30:55.304Z,8.10
2017-12-23T15:33:23.959Z,8.10
2017-12-23T15:35:51.614Z,8.10
2017-12-23T15:38:19.108Z,8.10
2017-12-23T15:40:46.800Z,9.50
2017-12-23T15:43:14.299Z,10.00
2017-12-23T15:45:41.855Z,10.90
2017-12-23T15:48:09.504Z,11.10
2017-12-23T15:50:37.027Z,10.30
2017-12-23T15:53:04.518Z,9.10
2017-12-23T15:55:32.139Z,8.60
2017-12-23T15:58:00.211Z,8.40
2017-12-23T16:00:28.300Z,8.30
2017-12-23T16:02:55.810Z,8.30
2017-12-23T16:05:24.236Z,8.20
2017-12-23T16:07:52.511Z,8.20
2017-12-23T16:10:20.620Z,8.20
2017-12-23T16:12:48.648Z,8.20
2017-12-23T16:15:16.555Z,8.20
2017-12-23T16:17:44.079Z,8.20
2017-12-23T16:20:13.308Z,8.30
2017-12-23T16:22:41.232Z,8.30
2017-12-23T16:25:08.736Z,8.30
2017-12-23T16:27:36.244Z,8.30
2017-12-23T16:30:04.503Z,8.30
2017-12-23T16:32:32.017Z,8.30
2017-12-23T16:35:00.090Z,8.40
2017-12-23T16:37:27.863Z,8.40
2017-12-23T16:39:55.617Z,8.50
2017-12-23T16:42:23.511Z,8.40
2017-12-23T16:44:51.120Z,8.50
2017-12-23T16:47:18.639Z,8.50
2017-12-23T16:49:46.272Z,8.40
2017-12-23T16:52:13.825Z,8.50
2017-12-23T16:54:41.588Z,8.50
2017-12-23T16:57:09.337Z,8.50
2017-12-23T16:59:36.843Z,8.50
2017-12-23T17:02:05.181Z,8.50
2017-12-23T17:04:32.681Z,8.50
2017-12-23T17:07:00.181Z,8.50
2017-12-23T17:09:27.680Z,8.50
2017-12-23T17:11:55.179Z,8.50
2017-12-23T17:14:22.775Z,8.60
2017-12-23T17:16:50.275Z,8.50
2017-12-23T17:19:18.303Z,8.50
2017-12-23T17:21:45.787Z,8.50
2017-12-23T17:24:13.280Z,8.50
2017-12-23T17:26:41.253Z,8.50
2017-12-23T17:29:21.931Z,8.50
2017-12-23T17:31:50.020Z,8.50
2017-12-23T17:34:17.507Z,8.40
2017-12-23T17:36:45.219Z,8.50
2017-12-23T17:39:12.935Z,8.50
2017-12-23T17:41:40.440Z,8.50
2017-12-23T17:44:08.091Z,8.50
2017-12-23T17:46:35.591Z,8.60
2017-12-23T17:49:03.137Z,8.60
2017-12-23T17:51:30.900Z,8.60
2017-12-23T17:53:58.395Z,8.60
2017-12-23T17:56:26.086Z,8.50
2017-12-23T17:58:53.571Z,8.60
2017-12-23T18:01:21.344Z,8.60
2017-12-23T18:03:49.559Z,9.80
2017-12-23T18:06:17.463Z,10.40
2017-12-23T18:08:44.963Z,10.60
2017-12-23T18:11:12.695Z,11.00
2017-12-23T18:13:40.459Z,11.70
2017-12-23T18:16:08.070Z,10.90
2017-12-23T18:18:36.607Z,10.70
2017-12-23T18:21:04.955Z,11.00
2017-12-23T18:23:32.743Z,10.60
2017-12-23T18:26:00.250Z,9.20
2017-12-23T18:28:27.962Z,8.90
2017-12-23T18:30:55.468Z,8.70
2017-12-23T18:33:23.168Z,8.70
2017-12-23T18:35:50.668Z,8.70
2017-12-23T18:38:18.408Z,8.70
2017-12-23T18:40:46.139Z,8.70
2017-12-23T18:43:13.653Z,8.70
2017-12-23T18:45:41.146Z,8.70
2017-12-23T18:48:08.651Z,8.70
2017-12-23T18:50:36.788Z,8.70
2017-12-23T18:53:04.684Z,8.70
2017-12-23T18:55:32.575Z,8.70
2017-12-23T18:58:00.573Z,8.70
2017-12-23T19:00:29.209Z,8.70
2017-12-23T19:02:56.992Z,8.70
2017-12-23T19:05:24.496Z,8.70
2017-12-23T19:07:52.005Z,8.70
2017-12-23T19:10:19.613Z,8.70
2017-12-23T19:12:47.533Z,8.70
2017-12-23T19:15:15.038Z,8.70
2017-12-23T19:17:44.051Z,8.70
2017-12-23T19:20:11.585Z,8.80
2017-12-23T19:22:39.083Z,8.70
2017-12-23T19:25:06.842Z,8.70
2017-12-23T19:27:35.097Z,8.70
2017-12-23T19:30:02.685Z,8.70
2017-12-23T19:32:31.670Z,8.70
2017-12-23T19:34:59.288Z,8.70
2017-12-23T19:37:26.891Z,8.70
2017-12-23T19:39:54.400Z,8.70
2017-12-23T19:42:23.031Z,8.70
2017-12-23T19:44:51.059Z,8.70
2017-12-23T19:47:19.164Z,8.70
2017-12-23T19:49:46.667Z,8.70
2017-12-23T19:52:14.956Z,8.70
2017-12-23T19:54:42.444Z,8.70
2017-12-23T19:57:10.215Z,8.70
2017-12-23T19:59:37.736Z,8.70
2017-12-23T20:02:06.028Z,8.60
2017-12-23T20:04:33.535Z,8.70
2017-12-23T20:07:01.283Z,8.60
2017-12-23T20:09:29.768Z,8.70
2017-12-23T20:11:57.715Z,8.60
2017-12-23T20:14:25.484Z,8.60
2017-12-23T20:16:53.429Z,8.60
2017-12-23T20:19:21.012Z,8.60
2017-12-23T20:21:48.783Z,8.60
2017-12-23T20:24:16.415Z,8.60
2017-12-23T20:26:44.651Z,8.50
2017-12-23T20:29:12.370Z,8.60
2017-12-23T20:31:40.568Z,8.60
2017-12-23T20:34:08.824Z,8.60
2017-12-23T20:36:36.687Z,8.60
2017-12-23T20:39:04.351Z,8.60
2017-12-23T20:41:32.111Z,8.60
2017-12-23T20:44:00.492Z,8.50
2017-12-23T20:46:29.217Z,8.50
2017-12-23T20:48:56.735Z,8.60
2017-12-23T20:51:24.420Z,8.60
2017-12-23T20:53:52.679Z,8.50
2017-12-23T20:56:20.181Z,8.50
2017-12-23T20:58:48.299Z,8.50
2017-12-23T21:01:16.063Z,8.50
2017-12-23T21:03:44.136Z,8.60
2017-12-23T21:06:11.885Z,8.50
2017-12-23T21:08:39.751Z,8.50
2017-12-23T21:11:07.415Z,8.50
2017-12-23T21:13:35.019Z,8.50
2017-12-23T21:16:02.966Z,8.60
2017-12-23T21:18:30.461Z,8.60
2017-12-23T21:20:58.763Z,8.60
2017-12-23T21:23:26.273Z,8.50
2017-12-23T21:25:53.802Z,8.50
2017-12-23T21:28:22.068Z,8.50
2017-12-23T21:30:49.567Z,8.50
2017-12-23T21:33:18.220Z,8.50
2017-12-23T21:35:46.115Z,8.50
2017-12-23T21:38:13.617Z,8.50
2017-12-23T21:40:41.192Z,8.60
2017-12-23T21:43:08.963Z,8.50
2017-12-23T21:45:36.491Z,8.60
2017-12-23T21:48:04.183Z,8.50
2017-12-23T21:50:31.684Z,8.60
2017-12-23T21:52:59.625Z,8.50
2017-12-23T21:55:27.965Z,8.60
2017-12-23T21:57:55.511Z,8.60
2017-12-23T22:00:23.019Z,8.60
2017-12-23T22:02:50.516Z,8.60
2017-12-23T22:05:18.840Z,8.50
2017-12-23T22:07:46.335Z,8.50
2017-12-23T22:10:14.971Z,8.50
2017-12-23T22:12:43.015Z,8.50
2017-12-23T22:15:10.522Z,8.50
2017-12-23T22:17:38.245Z,8.40
2017-12-23T22:20:05.971Z,8.50
2017-12-23T22:22:34.411Z,8.40
2017-12-23T22:25:02.180Z,8.40
2017-12-23T22:27:29.939Z,8.50
2017-12-23T22:29:58.423Z,8.40
2017-12-23T22:32:26.604Z,8.50
2017-12-23T22:34:54.103Z,8.40
2017-12-23T22:37:21.611Z,8.40
2017-12-23T22:39:49.386Z,8.30
2017-12-23T22:42:29.193Z,8.40
2017-12-23T22:44:56.695Z,8.40
2017-12-23T22:47:24.299Z,8.40
2017-12-23T22:49:51.831Z,8.40
2017-12-23T22:52:19.519Z,8.40
2017-12-23T22:54:47.628Z,8.40
2017-12-23T22:57:15.129Z,8.40
2017-12-23T22:59:42.623Z,8.40
2017-12-23T23:02:10.303Z,8.40
2017-12-23T23:04:37.800Z,8.40
2017-12-23T23:07:05.297Z,8.40
2017-12-23T23:09:33.359Z,8.40
2017-12-23T23:12:00.861Z,8.40
2017-12-23T23:14:28.512Z,8.40
2017-12-23T23:16:56.422Z,8.40
2017-12-23T23:19:24.675Z,8.50
2017-12-23T23:21:52.182Z,8.50
2017-12-23T23:24:20.180Z,8.50
2017-12-23T23:26:47.940Z,8.50
2017-12-23T23:29:15.439Z,8.50
2017-12-23T23:31:42.940Z,8.50
2017-12-23T23:34:11.698Z,8.50
2017-12-23T23:36:40.710Z,8.50
2017-12-23T23:39:08.599Z,8.50
2017-12-23T23:41:36.119Z,8.50
2017-12-23T23:44:03.615Z,8.50
2017-12-23T23:46:31.511Z,8.50
2017-12-23T23:48:59.040Z,8.60
2017-12-23T23:51:26.802Z,8.50
2017-12-23T23:53:54.304Z,8.50
2017-12-23T23:56:21.804Z,8.50
2017-12-23T23:58:49.479Z,8.40
